GLD1620 SBFZ-SOCA
Flight info
| Callsign | GLD1620 |
|---|---|
| Flight time | N/A |
| Altitude | 38000 |
| Route | ASOVU POSPI UM791 SIKUD ALDIX ALDI1S |
| Aircraft | A20N/M-SDE2E3FGHIRWXY/LB1 |
Departure
| Time | 2026-04-27 02:19 |
|---|---|
| Airport | Pinto Martins International Airport (SBFZ) |
Arrival
| Time | N/A |
|---|---|
| Airport | Cayenne – Félix Eboué Airport (SOCA) |
| Time | Latitude | Longitude | Altitude | Speed | Heading |
|---|---|---|---|---|---|
| 2026-04-27 02:08 | -3.77812 | -38.53963 | 75 ft | 0 kts | 201° |
| 2026-04-27 02:13 | -3.77800 | -38.53958 | 91 ft | 4 kts | 203° |
| 2026-04-27 02:13 | -3.77775 | -38.53947 | 92 ft | 4 kts | 209° |
| 2026-04-27 02:13 | -3.77753 | -38.53932 | 91 ft | 4 kts | 232° |
| 2026-04-27 02:13 | -3.77746 | -38.53914 | 92 ft | 2 kts | 303° |
| 2026-04-27 02:14 | -3.77746 | -38.53913 | 92 ft | 0 kts | 303° |
| 2026-04-27 02:16 | -3.77743 | -38.53918 | 93 ft | 4 kts | 303° |
| 2026-04-27 02:17 | -3.77711 | -38.53975 | 94 ft | 16 kts | 292° |
| 2026-04-27 02:17 | -3.77676 | -38.54102 | 91 ft | 21 kts | 287° |
| 2026-04-27 02:17 | -3.77635 | -38.54256 | 91 ft | 25 kts | 287° |
| 2026-04-27 02:17 | -3.77559 | -38.54375 | 92 ft | 16 kts | 356° |
| 2026-04-27 02:18 | -3.77445 | -38.54375 | 91 ft | 8 kts | 13° |
| 2026-04-27 02:18 | -3.77443 | -38.54374 | 91 ft | 0 kts | 13° |
| 2026-04-27 02:18 | -3.77436 | -38.54373 | 91 ft | 5 kts | 13° |
| 2026-04-27 02:18 | -3.77375 | -38.54353 | 93 ft | 12 kts | 32° |
| 2026-04-27 02:19 | -3.77361 | -38.54271 | 93 ft | 16 kts | 103° |
| 2026-04-27 02:19 | -3.77476 | -38.53855 | 93 ft | 115 kts | 105° |
| 2026-04-27 02:19 | -3.77750 | -38.52817 | 276 ft | 182 kts | 107° |
| 2026-04-27 02:19 | -3.78074 | -38.51480 | 758 ft | 212 kts | 106° |
| 2026-04-27 02:20 | -3.78427 | -38.50114 | 1061 ft | 204 kts | 105° |
| 2026-04-27 02:20 | -3.78774 | -38.48651 | 2004 ft | 219 kts | 94° |
| 2026-04-27 02:20 | -3.78493 | -38.47129 | 3090 ft | 236 kts | 64° |
| 2026-04-27 02:20 | -3.77406 | -38.45898 | 4200 ft | 240 kts | 36° |
| 2026-04-27 02:21 | -3.75789 | -38.45329 | 5018 ft | 263 kts | 5° |
| 2026-04-27 02:21 | -3.73982 | -38.45663 | 6260 ft | 266 kts | 335° |
| 2026-04-27 02:21 | -3.72559 | -38.46791 | 7458 ft | 266 kts | 307° |
| 2026-04-27 02:21 | -3.71550 | -38.48356 | 8582 ft | 269 kts | 301° |
| 2026-04-27 02:22 | -3.70485 | -38.49915 | 9756 ft | 271 kts | 308° |
| 2026-04-27 02:22 | -3.69230 | -38.51314 | 10785 ft | 275 kts | 315° |
| 2026-04-27 02:22 | -3.67786 | -38.52608 | 11789 ft | 279 kts | 320° |
| 2026-04-27 02:22 | -3.66250 | -38.53838 | 12799 ft | 284 kts | 319° |
| 2026-04-27 02:23 | -3.64890 | -38.55270 | 13820 ft | 287 kts | 306° |
| 2026-04-27 02:23 | -3.63850 | -38.56994 | 14697 ft | 291 kts | 297° |
| 2026-04-27 02:23 | -3.62896 | -38.58790 | 15573 ft | 294 kts | 298° |
| 2026-04-27 02:23 | -3.61934 | -38.60582 | 16457 ft | 298 kts | 298° |
| 2026-04-27 02:24 | -3.60952 | -38.62401 | 17294 ft | 303 kts | 298° |
| 2026-04-27 02:24 | -3.59942 | -38.64271 | 18146 ft | 307 kts | 298° |
| 2026-04-27 02:24 | -3.58920 | -38.66163 | 18855 ft | 313 kts | 298° |
| 2026-04-27 02:24 | -3.57850 | -38.68145 | 19127 ft | 336 kts | 298° |
| 2026-04-27 02:25 | -3.56701 | -38.70274 | 19309 ft | 359 kts | 298° |
| 2026-04-27 02:25 | -3.55459 | -38.72576 | 19496 ft | 381 kts | 298° |
| 2026-04-27 02:25 | -3.54171 | -38.74964 | 19722 ft | 398 kts | 298° |
| 2026-04-27 02:25 | -3.52846 | -38.77421 | 20293 ft | 404 kts | 298° |
| 2026-04-27 02:26 | -3.51506 | -38.79908 | 20939 ft | 408 kts | 298° |
| 2026-04-27 02:26 | -3.50154 | -38.82415 | 21543 ft | 413 kts | 299° |
| 2026-04-27 02:26 | -3.48779 | -38.84964 | 22161 ft | 418 kts | 299° |